sensor_id;sensor_type;location;lat;lon;timestamp;P1;durP1;ratioP1;P2;durP2;ratioP2
75689;SDS011;64303;53.118;9.044;2023-02-28T00:00:48;8.63;;;7.75;;
75689;SDS011;64303;53.118;9.044;2023-02-28T00:03:17;13.07;;;12.10;;
75689;SDS011;64303;53.118;9.044;2023-02-28T00:05:44;10.13;;;9.07;;
75689;SDS011;64303;53.118;9.044;2023-02-28T00:08:12;11.05;;;9.55;;
75689;SDS011;64303;53.118;9.044;2023-02-28T00:10:39;11.55;;;8.75;;
75689;SDS011;64303;53.118;9.044;2023-02-28T00:13:06;9.32;;;8.05;;
75689;SDS011;64303;53.118;9.044;2023-02-28T00:15:32;10.98;;;9.75;;
75689;SDS011;64303;53.118;9.044;2023-02-28T00:17:59;11.43;;;8.70;;
75689;SDS011;64303;53.118;9.044;2023-02-28T00:20:26;11.18;;;9.68;;
75689;SDS011;64303;53.118;9.044;2023-02-28T00:22:54;10.77;;;9.68;;
75689;SDS011;64303;53.118;9.044;2023-02-28T00:25:23;12.48;;;11.27;;
75689;SDS011;64303;53.118;9.044;2023-02-28T00:27:51;19.02;;;17.02;;
75689;SDS011;64303;53.118;9.044;2023-02-28T00:30:18;16.17;;;14.55;;
75689;SDS011;64303;53.118;9.044;2023-02-28T00:32:45;15.20;;;11.18;;
75689;SDS011;64303;53.118;9.044;2023-02-28T00:35:12;10.73;;;9.63;;
75689;SDS011;64303;53.118;9.044;2023-02-28T00:37:40;13.45;;;11.23;;
75689;SDS011;64303;53.118;9.044;2023-02-28T00:40:10;9.38;;;8.38;;
75689;SDS011;64303;53.118;9.044;2023-02-28T00:42:39;9.23;;;7.90;;
75689;SDS011;64303;53.118;9.044;2023-02-28T00:47:36;10.48;;;9.63;;
75689;SDS011;64303;53.118;9.044;2023-02-28T00:50:03;11.00;;;9.93;;
75689;SDS011;64303;53.118;9.044;2023-02-28T00:52:30;9.07;;;7.78;;
75689;SDS011;64303;53.118;9.044;2023-02-28T00:54:57;10.80;;;8.63;;
75689;SDS011;64303;53.118;9.044;2023-02-28T00:57:24;12.32;;;11.13;;
75689;SDS011;64303;53.118;9.044;2023-02-28T00:59:52;10.10;;;8.60;;
75689;SDS011;64303;53.118;9.044;2023-02-28T01:02:20;11.18;;;10.00;;
75689;SDS011;64303;53.118;9.044;2023-02-28T01:04:47;10.73;;;9.23;;
75689;SDS011;64303;53.118;9.044;2023-02-28T01:07:14;12.15;;;11.20;;
75689;SDS011;64303;53.118;9.044;2023-02-28T01:09:40;10.32;;;8.90;;
75689;SDS011;64303;53.118;9.044;2023-02-28T01:12:07;10.98;;;9.98;;
75689;SDS011;64303;53.118;9.044;2023-02-28T01:14:34;10.50;;;9.63;;
75689;SDS011;64303;53.118;9.044;2023-02-28T01:17:03;11.20;;;10.00;;
75689;SDS011;64303;53.118;9.044;2023-02-28T01:19:30;12.00;;;11.10;;
75689;SDS011;64303;53.118;9.044;2023-02-28T01:21:59;10.88;;;9.80;;
75689;SDS011;64303;53.118;9.044;2023-02-28T01:24:26;10.10;;;8.65;;
75689;SDS011;64303;53.118;9.044;2023-02-28T01:26:54;9.93;;;8.63;;
75689;SDS011;64303;53.118;9.044;2023-02-28T01:29:20;13.30;;;8.60;;
75689;SDS011;64303;53.118;9.044;2023-02-28T01:31:47;13.25;;;11.65;;
75689;SDS011;64303;53.118;9.044;2023-02-28T01:34:15;9.65;;;8.35;;
75689;SDS011;64303;53.118;9.044;2023-02-28T01:36:44;11.32;;;8.32;;
75689;SDS011;64303;53.118;9.044;2023-02-28T01:39:11;12.07;;;10.20;;
75689;SDS011;64303;53.118;9.044;2023-02-28T01:41:39;9.25;;;7.57;;
75689;SDS011;64303;53.118;9.044;2023-02-28T01:44:07;12.07;;;10.90;;
75689;SDS011;64303;53.118;9.044;2023-02-28T01:46:55;9.80;;;8.98;;
75689;SDS011;64303;53.118;9.044;2023-02-28T01:49:23;10.15;;;9.38;;
75689;SDS011;64303;53.118;9.044;2023-02-28T01:51:53;9.35;;;8.48;;
75689;SDS011;64303;53.118;9.044;2023-02-28T01:54:22;10.88;;;7.65;;
75689;SDS011;64303;53.118;9.044;2023-02-28T01:56:51;9.48;;;8.50;;
75689;SDS011;64303;53.118;9.044;2023-02-28T01:59:22;12.52;;;11.57;;
75689;SDS011;64303;53.118;9.044;2023-02-28T02:01:51;10.60;;;9.27;;
75689;SDS011;64303;53.118;9.044;2023-02-28T02:04:19;13.50;;;12.32;;
75689;SDS011;64303;53.118;9.044;2023-02-28T02:06:48;8.52;;;7.82;;
75689;SDS011;64303;53.118;9.044;2023-02-28T02:09:15;12.02;;;8.30;;
75689;SDS011;64303;53.118;9.044;2023-02-28T02:11:42;9.25;;;8.38;;
75689;SDS011;64303;53.118;9.044;2023-02-28T02:14:31;14.02;;;12.68;;
75689;SDS011;64303;53.118;9.044;2023-02-28T02:17:16;9.80;;;8.75;;
75689;SDS011;64303;53.118;9.044;2023-02-28T02:23:04;12.80;;;11.70;;
75689;SDS011;64303;53.118;9.044;2023-02-28T02:25:39;11.25;;;10.52;;
75689;SDS011;64303;53.118;9.044;2023-02-28T02:28:17;9.93;;;8.98;;
75689;SDS011;64303;53.118;9.044;2023-02-28T02:30:59;10.00;;;8.43;;
75689;SDS011;64303;53.118;9.044;2023-02-28T02:37:06;11.35;;;8.50;;
75689;SDS011;64303;53.118;9.044;2023-02-28T02:42:08;9.85;;;8.10;;
75689;SDS011;64303;53.118;9.044;2023-02-28T02:44:40;11.20;;;8.88;;
75689;SDS011;64303;53.118;9.044;2023-02-28T02:47:11;8.50;;;7.72;;
75689;SDS011;64303;53.118;9.044;2023-02-28T02:49:43;12.95;;;8.48;;
75689;SDS011;64303;53.118;9.044;2023-02-28T02:52:14;9.38;;;8.65;;
75689;SDS011;64303;53.118;9.044;2023-02-28T02:54:42;9.18;;;8.18;;
75689;SDS011;64303;53.118;9.044;2023-02-28T02:57:11;8.43;;;7.72;;
75689;SDS011;64303;53.118;9.044;2023-02-28T02:59:40;8.32;;;7.63;;
75689;SDS011;64303;53.118;9.044;2023-02-28T03:02:08;8.07;;;7.13;;
75689;SDS011;64303;53.118;9.044;2023-02-28T03:04:38;9.13;;;8.20;;
75689;SDS011;64303;53.118;9.044;2023-02-28T03:07:09;9.27;;;8.48;;
75689;SDS011;64303;53.118;9.044;2023-02-28T03:09:36;8.30;;;7.32;;
75689;SDS011;64303;53.118;9.044;2023-02-28T03:12:06;11.50;;;10.60;;
75689;SDS011;64303;53.118;9.044;2023-02-28T03:14:44;10.98;;;9.90;;
75689;SDS011;64303;53.118;9.044;2023-02-28T03:17:27;9.57;;;8.82;;
75689;SDS011;64303;53.118;9.044;2023-02-28T03:20:04;8.70;;;8.00;;
75689;SDS011;64303;53.118;9.044;2023-02-28T03:22:42;8.45;;;7.65;;
75689;SDS011;64303;53.118;9.044;2023-02-28T03:25:30;12.70;;;11.73;;
75689;SDS011;64303;53.118;9.044;2023-02-28T03:28:04;12.30;;;9.15;;
75689;SDS011;64303;53.118;9.044;2023-02-28T03:30:36;13.63;;;12.73;;
75689;SDS011;64303;53.118;9.044;2023-02-28T03:33:08;8.77;;;6.80;;
75689;SDS011;64303;53.118;9.044;2023-02-28T03:35:38;8.45;;;7.53;;
75689;SDS011;64303;53.118;9.044;2023-02-28T03:38:08;7.07;;;6.47;;
75689;SDS011;64303;53.118;9.044;2023-02-28T03:40:40;9.05;;;8.25;;
75689;SDS011;64303;53.118;9.044;2023-02-28T03:43:09;9.85;;;8.95;;
75689;SDS011;64303;53.118;9.044;2023-02-28T03:45:38;9.23;;;8.38;;
75689;SDS011;64303;53.118;9.044;2023-02-28T03:48:06;8.75;;;7.93;;
75689;SDS011;64303;53.118;9.044;2023-02-28T03:50:38;9.10;;;7.47;;
75689;SDS011;64303;53.118;9.044;2023-02-28T03:53:08;10.77;;;9.82;;
75689;SDS011;64303;53.118;9.044;2023-02-28T03:55:39;9.15;;;8.50;;
75689;SDS011;64303;53.118;9.044;2023-02-28T03:58:09;9.95;;;9.05;;
75689;SDS011;64303;53.118;9.044;2023-02-28T04:00:39;8.02;;;7.03;;
75689;SDS011;64303;53.118;9.044;2023-02-28T04:03:08;10.20;;;9.35;;
75689;SDS011;64303;53.118;9.044;2023-02-28T04:05:43;10.60;;;9.70;;
75689;SDS011;64303;53.118;9.044;2023-02-28T04:08:13;9.48;;;7.28;;
75689;SDS011;64303;53.118;9.044;2023-02-28T04:10:40;8.43;;;7.75;;
75689;SDS011;64303;53.118;9.044;2023-02-28T04:13:08;9.35;;;8.13;;
75689;SDS011;64303;53.118;9.044;2023-02-28T04:15:35;8.10;;;7.30;;
75689;SDS011;64303;53.118;9.044;2023-02-28T04:18:02;7.53;;;6.90;;
75689;SDS011;64303;53.118;9.044;2023-02-28T04:20:29;13.07;;;12.15;;
75689;SDS011;64303;53.118;9.044;2023-02-28T04:22:55;7.82;;;7.13;;
75689;SDS011;64303;53.118;9.044;2023-02-28T04:25:23;10.32;;;9.63;;
75689;SDS011;64303;53.118;9.044;2023-02-28T04:27:50;9.63;;;7.32;;
75689;SDS011;64303;53.118;9.044;2023-02-28T04:30:17;7.70;;;7.13;;
75689;SDS011;64303;53.118;9.044;2023-02-28T04:32:43;10.07;;;9.18;;
75689;SDS011;64303;53.118;9.044;2023-02-28T04:35:10;7.05;;;6.20;;
75689;SDS011;64303;53.118;9.044;2023-02-28T04:37:37;9.02;;;8.40;;
75689;SDS011;64303;53.118;9.044;2023-02-28T04:40:04;7.60;;;6.88;;
75689;SDS011;64303;53.118;9.044;2023-02-28T04:42:32;8.45;;;7.72;;
75689;SDS011;64303;53.118;9.044;2023-02-28T04:45:01;12.70;;;11.48;;
75689;SDS011;64303;53.118;9.044;2023-02-28T04:47:28;9.50;;;8.70;;
75689;SDS011;64303;53.118;9.044;2023-02-28T04:49:55;9.65;;;8.90;;
75689;SDS011;64303;53.118;9.044;2023-02-28T04:52:21;9.32;;;8.63;;
75689;SDS011;64303;53.118;9.044;2023-02-28T04:54:48;8.70;;;8.00;;
75689;SDS011;64303;53.118;9.044;2023-02-28T04:57:15;8.68;;;7.90;;
75689;SDS011;64303;53.118;9.044;2023-02-28T04:59:43;8.07;;;7.43;;
75689;SDS011;64303;53.118;9.044;2023-02-28T05:02:10;10.05;;;9.25;;
75689;SDS011;64303;53.118;9.044;2023-02-28T05:04:37;7.85;;;7.05;;
75689;SDS011;64303;53.118;9.044;2023-02-28T05:07:03;11.98;;;11.10;;
75689;SDS011;64303;53.118;9.044;2023-02-28T05:09:30;9.43;;;8.65;;
75689;SDS011;64303;53.118;9.044;2023-02-28T05:11:58;8.75;;;8.00;;
75689;SDS011;64303;53.118;9.044;2023-02-28T05:14:25;8.07;;;7.35;;
75689;SDS011;64303;53.118;9.044;2023-02-28T05:16:52;5.53;;;5.03;;
75689;SDS011;64303;53.118;9.044;2023-02-28T05:19:20;7.35;;;6.65;;
75689;SDS011;64303;53.118;9.044;2023-02-28T05:21:51;7.90;;;7.22;;
75689;SDS011;64303;53.118;9.044;2023-02-28T05:24:18;9.18;;;6.60;;
75689;SDS011;64303;53.118;9.044;2023-02-28T05:26:48;6.88;;;6.38;;
75689;SDS011;64303;53.118;9.044;2023-02-28T05:29:16;7.28;;;5.78;;
75689;SDS011;64303;53.118;9.044;2023-02-28T05:31:43;8.13;;;7.30;;
75689;SDS011;64303;53.118;9.044;2023-02-28T05:34:11;9.45;;;8.85;;
75689;SDS011;64303;53.118;9.044;2023-02-28T05:36:37;8.88;;;8.23;;
75689;SDS011;64303;53.118;9.044;2023-02-28T05:39:04;9.10;;;8.30;;
75689;SDS011;64303;53.118;9.044;2023-02-28T05:41:32;12.90;;;12.02;;
75689;SDS011;64303;53.118;9.044;2023-02-28T05:43:59;10.35;;;9.38;;
75689;SDS011;64303;53.118;9.044;2023-02-28T05:46:26;9.02;;;7.93;;
75689;SDS011;64303;53.118;9.044;2023-02-28T05:48:53;10.52;;;9.50;;
75689;SDS011;64303;53.118;9.044;2023-02-28T05:51:22;9.30;;;8.57;;
75689;SDS011;64303;53.118;9.044;2023-02-28T05:53:49;8.80;;;7.95;;
75689;SDS011;64303;53.118;9.044;2023-02-28T05:56:15;9.55;;;8.73;;
75689;SDS011;64303;53.118;9.044;2023-02-28T05:58:42;9.18;;;7.93;;
75689;SDS011;64303;53.118;9.044;2023-02-28T06:01:19;12.68;;;11.73;;
75689;SDS011;64303;53.118;9.044;2023-02-28T06:03:50;10.55;;;9.75;;
75689;SDS011;64303;53.118;9.044;2023-02-28T06:06:17;8.32;;;7.63;;
75689;SDS011;64303;53.118;9.044;2023-02-28T06:08:45;10.32;;;9.52;;
75689;SDS011;64303;53.118;9.044;2023-02-28T06:11:12;9.20;;;8.30;;
75689;SDS011;64303;53.118;9.044;2023-02-28T06:13:39;11.70;;;10.70;;
75689;SDS011;64303;53.118;9.044;2023-02-28T06:16:06;10.50;;;9.70;;
75689;SDS011;64303;53.118;9.044;2023-02-28T06:18:33;13.93;;;12.88;;
75689;SDS011;64303;53.118;9.044;2023-02-28T06:20:59;8.88;;;7.85;;
75689;SDS011;64303;53.118;9.044;2023-02-28T06:23:26;10.13;;;9.43;;
75689;SDS011;64303;53.118;9.044;2023-02-28T06:25:54;10.88;;;9.90;;
75689;SDS011;64303;53.118;9.044;2023-02-28T06:28:24;8.68;;;7.95;;
75689;SDS011;64303;53.118;9.044;2023-02-28T06:30:50;10.93;;;8.43;;
75689;SDS011;64303;53.118;9.044;2023-02-28T06:33:17;10.90;;;10.13;;
75689;SDS011;64303;53.118;9.044;2023-02-28T06:35:44;9.95;;;8.98;;
75689;SDS011;64303;53.118;9.044;2023-02-28T06:38:13;11.50;;;10.63;;
75689;SDS011;64303;53.118;9.044;2023-02-28T06:40:39;11.77;;;10.57;;
75689;SDS011;64303;53.118;9.044;2023-02-28T06:43:07;9.07;;;8.25;;
75689;SDS011;64303;53.118;9.044;2023-02-28T06:45:34;10.02;;;9.13;;
75689;SDS011;64303;53.118;9.044;2023-02-28T06:48:01;13.13;;;8.88;;
75689;SDS011;64303;53.118;9.044;2023-02-28T06:50:27;12.13;;;11.27;;
75689;SDS011;64303;53.118;9.044;2023-02-28T06:52:56;14.20;;;13.30;;
75689;SDS011;64303;53.118;9.044;2023-02-28T06:55:22;9.23;;;8.50;;
75689;SDS011;64303;53.118;9.044;2023-02-28T06:57:49;10.00;;;9.10;;
75689;SDS011;64303;53.118;9.044;2023-02-28T07:00:18;10.63;;;9.85;;
75689;SDS011;64303;53.118;9.044;2023-02-28T07:02:45;12.02;;;11.02;;
75689;SDS011;64303;53.118;9.044;2023-02-28T07:05:12;10.13;;;9.13;;
75689;SDS011;64303;53.118;9.044;2023-02-28T07:07:39;12.18;;;11.07;;
75689;SDS011;64303;53.118;9.044;2023-02-28T07:10:09;11.65;;;10.75;;
75689;SDS011;64303;53.118;9.044;2023-02-28T07:12:37;9.32;;;8.60;;
75689;SDS011;64303;53.118;9.044;2023-02-28T07:15:04;9.90;;;9.15;;
75689;SDS011;64303;53.118;9.044;2023-02-28T07:17:32;11.85;;;9.77;;
75689;SDS011;64303;53.118;9.044;2023-02-28T07:19:59;12.82;;;10.75;;
75689;SDS011;64303;53.118;9.044;2023-02-28T07:22:26;16.23;;;11.23;;
75689;SDS011;64303;53.118;9.044;2023-02-28T07:24:53;11.35;;;10.48;;
75689;SDS011;64303;53.118;9.044;2023-02-28T07:27:20;11.55;;;9.77;;
75689;SDS011;64303;53.118;9.044;2023-02-28T07:29:50;14.15;;;13.15;;
75689;SDS011;64303;53.118;9.044;2023-02-28T07:32:18;12.35;;;11.45;;
75689;SDS011;64303;53.118;9.044;2023-02-28T07:34:46;11.15;;;10.32;;
75689;SDS011;64303;53.118;9.044;2023-02-28T07:37:12;9.40;;;8.63;;
75689;SDS011;64303;53.118;9.044;2023-02-28T07:39:39;12.35;;;11.55;;
75689;SDS011;64303;53.118;9.044;2023-02-28T07:42:07;9.45;;;8.75;;
75689;SDS011;64303;53.118;9.044;2023-02-28T07:44:35;8.95;;;8.18;;
75689;SDS011;64303;53.118;9.044;2023-02-28T07:47:06;9.48;;;8.68;;
75689;SDS011;64303;53.118;9.044;2023-02-28T07:49:33;8.60;;;7.90;;
75689;SDS011;64303;53.118;9.044;2023-02-28T07:52:01;9.77;;;8.98;;
75689;SDS011;64303;53.118;9.044;2023-02-28T07:54:28;13.90;;;12.90;;
75689;SDS011;64303;53.118;9.044;2023-02-28T07:56:55;7.78;;;6.88;;
75689;SDS011;64303;53.118;9.044;2023-02-28T07:59:22;10.13;;;9.30;;
75689;SDS011;64303;53.118;9.044;2023-02-28T08:01:49;11.27;;;10.38;;
75689;SDS011;64303;53.118;9.044;2023-02-28T08:04:16;9.18;;;8.48;;
75689;SDS011;64303;53.118;9.044;2023-02-28T08:06:43;13.57;;;12.57;;
75689;SDS011;64303;53.118;9.044;2023-02-28T08:09:11;12.35;;;11.27;;
75689;SDS011;64303;53.118;9.044;2023-02-28T08:11:37;9.80;;;7.95;;
75689;SDS011;64303;53.118;9.044;2023-02-28T08:14:04;9.90;;;8.98;;
75689;SDS011;64303;53.118;9.044;2023-02-28T08:16:31;12.70;;;11.60;;
75689;SDS011;64303;53.118;9.044;2023-02-28T08:18:57;8.55;;;7.47;;
75689;SDS011;64303;53.118;9.044;2023-02-28T08:21:24;10.13;;;9.13;;
75689;SDS011;64303;53.118;9.044;2023-02-28T08:23:51;8.48;;;7.75;;
75689;SDS011;64303;53.118;9.044;2023-02-28T08:26:19;10.38;;;8.20;;
75689;SDS011;64303;53.118;9.044;2023-02-28T08:28:46;11.32;;;10.52;;
75689;SDS011;64303;53.118;9.044;2023-02-28T08:31:14;14.88;;;13.82;;
75689;SDS011;64303;53.118;9.044;2023-02-28T08:33:41;8.55;;;7.75;;
75689;SDS011;64303;53.118;9.044;2023-02-28T08:38:37;10.70;;;8.10;;
75689;SDS011;64303;53.118;9.044;2023-02-28T08:41:05;14.43;;;12.65;;
75689;SDS011;64303;53.118;9.044;2023-02-28T08:43:34;10.18;;;9.15;;
75689;SDS011;64303;53.118;9.044;2023-02-28T08:46:01;8.68;;;7.85;;
75689;SDS011;64303;53.118;9.044;2023-02-28T08:48:29;8.18;;;7.47;;
75689;SDS011;64303;53.118;9.044;2023-02-28T08:53:23;7.93;;;7.32;;
75689;SDS011;64303;53.118;9.044;2023-02-28T08:55:57;8.25;;;7.55;;
75689;SDS011;64303;53.118;9.044;2023-02-28T08:58:23;7.93;;;7.25;;
75689;SDS011;64303;53.118;9.044;2023-02-28T09:00:52;8.18;;;7.43;;
75689;SDS011;64303;53.118;9.044;2023-02-28T09:03:19;8.65;;;8.05;;
75689;SDS011;64303;53.118;9.044;2023-02-28T09:05:56;7.20;;;6.43;;
75689;SDS011;64303;53.118;9.044;2023-02-28T09:08:23;7.25;;;6.43;;
75689;SDS011;64303;53.118;9.044;2023-02-28T09:10:50;6.47;;;5.88;;
75689;SDS011;64303;53.118;9.044;2023-02-28T09:13:17;8.80;;;6.78;;
75689;SDS011;64303;53.118;9.044;2023-02-28T09:15:44;8.30;;;7.13;;
75689;SDS011;64303;53.118;9.044;2023-02-28T09:18:12;8.23;;;7.63;;
75689;SDS011;64303;53.118;9.044;2023-02-28T09:20:40;6.75;;;6.13;;
75689;SDS011;64303;53.118;9.044;2023-02-28T09:23:07;8.07;;;7.38;;
75689;SDS011;64303;53.118;9.044;2023-02-28T09:25:35;8.65;;;7.97;;
75689;SDS011;64303;53.118;9.044;2023-02-28T09:28:02;6.90;;;6.22;;
75689;SDS011;64303;53.118;9.044;2023-02-28T09:30:29;8.32;;;7.65;;
75689;SDS011;64303;53.118;9.044;2023-02-28T09:32:56;6.68;;;6.07;;
75689;SDS011;64303;53.118;9.044;2023-02-28T09:35:24;6.55;;;6.05;;
75689;SDS011;64303;53.118;9.044;2023-02-28T09:37:52;7.25;;;6.57;;
75689;SDS011;64303;53.118;9.044;2023-02-28T09:40:19;6.78;;;6.03;;
75689;SDS011;64303;53.118;9.044;2023-02-28T09:45:16;6.05;;;5.57;;
75689;SDS011;64303;53.118;9.044;2023-02-28T09:47:46;7.85;;;7.05;;
75689;SDS011;64303;53.118;9.044;2023-02-28T09:50:17;8.20;;;7.40;;
75689;SDS011;64303;53.118;9.044;2023-02-28T09:52:47;7.32;;;5.55;;
75689;SDS011;64303;53.118;9.044;2023-02-28T09:55:18;5.10;;;4.70;;
75689;SDS011;64303;53.118;9.044;2023-02-28T09:57:47;7.28;;;6.65;;
75689;SDS011;64303;53.118;9.044;2023-02-28T10:00:17;7.68;;;7.05;;
75689;SDS011;64303;53.118;9.044;2023-02-28T10:05:38;5.40;;;4.90;;
75689;SDS011;64303;53.118;9.044;2023-02-28T10:08:11;5.32;;;4.93;;
75689;SDS011;64303;53.118;9.044;2023-02-28T10:10:41;4.93;;;4.53;;
75689;SDS011;64303;53.118;9.044;2023-02-28T10:15:40;5.13;;;4.32;;
75689;SDS011;64303;53.118;9.044;2023-02-28T10:18:09;7.25;;;6.68;;
75689;SDS011;64303;53.118;9.044;2023-02-28T10:20:38;4.97;;;4.63;;
75689;SDS011;64303;53.118;9.044;2023-02-28T10:23:09;5.25;;;4.85;;
75689;SDS011;64303;53.118;9.044;2023-02-28T10:25:39;5.75;;;5.30;;
75689;SDS011;64303;53.118;9.044;2023-02-28T10:28:10;7.15;;;6.55;;
75689;SDS011;64303;53.118;9.044;2023-02-28T10:30:40;6.03;;;5.63;;
75689;SDS011;64303;53.118;9.044;2023-02-28T10:33:13;5.53;;;5.05;;
75689;SDS011;64303;53.118;9.044;2023-02-28T10:35:44;6.65;;;6.05;;
75689;SDS011;64303;53.118;9.044;2023-02-28T10:38:14;5.55;;;5.07;;
75689;SDS011;64303;53.118;9.044;2023-02-28T10:40:43;5.30;;;4.97;;
75689;SDS011;64303;53.118;9.044;2023-02-28T10:43:17;9.20;;;8.70;;
75689;SDS011;64303;53.118;9.044;2023-02-28T10:45:52;5.70;;;5.25;;
75689;SDS011;64303;53.118;9.044;2023-02-28T10:51:08;4.55;;;4.20;;
75689;SDS011;64303;53.118;9.044;2023-02-28T10:53:39;5.90;;;4.47;;
75689;SDS011;64303;53.118;9.044;2023-02-28T10:56:15;7.60;;;5.60;;
75689;SDS011;64303;53.118;9.044;2023-02-28T10:58:49;6.95;;;6.45;;
75689;SDS011;64303;53.118;9.044;2023-02-28T11:01:19;5.50;;;4.93;;
75689;SDS011;64303;53.118;9.044;2023-02-28T11:03:47;4.72;;;4.32;;
75689;SDS011;64303;53.118;9.044;2023-02-28T11:06:17;8.63;;;8.13;;
75689;SDS011;64303;53.118;9.044;2023-02-28T11:08:48;5.30;;;4.85;;
75689;SDS011;64303;53.118;9.044;2023-02-28T11:11:17;5.05;;;4.05;;
75689;SDS011;64303;53.118;9.044;2023-02-28T11:13:45;5.28;;;4.50;;
75689;SDS011;64303;53.118;9.044;2023-02-28T11:18:41;5.50;;;5.00;;
75689;SDS011;64303;53.118;9.044;2023-02-28T11:21:09;5.22;;;4.82;;
75689;SDS011;64303;53.118;9.044;2023-02-28T11:23:42;5.70;;;5.30;;
75689;SDS011;64303;53.118;9.044;2023-02-28T11:26:10;4.60;;;4.20;;
75689;SDS011;64303;53.118;9.044;2023-02-28T11:28:38;4.35;;;4.05;;
75689;SDS011;64303;53.118;9.044;2023-02-28T11:31:14;7.93;;;7.43;;
75689;SDS011;64303;53.118;9.044;2023-02-28T11:33:45;4.18;;;3.88;;
75689;SDS011;64303;53.118;9.044;2023-02-28T11:36:16;4.18;;;3.88;;
75689;SDS011;64303;53.118;9.044;2023-02-28T11:38:45;4.75;;;4.30;;
75689;SDS011;64303;53.118;9.044;2023-02-28T11:41:19;7.15;;;6.55;;
75689;SDS011;64303;53.118;9.044;2023-02-28T11:44:11;4.43;;;4.13;;
75689;SDS011;64303;53.118;9.044;2023-02-28T11:46:46;5.80;;;5.40;;
75689;SDS011;64303;53.118;9.044;2023-02-28T11:49:20;6.18;;;5.78;;
75689;SDS011;64303;53.118;9.044;2023-02-28T11:51:54;6.35;;;5.95;;
75689;SDS011;64303;53.118;9.044;2023-02-28T11:57:23;5.85;;;5.53;;
75689;SDS011;64303;53.118;9.044;2023-02-28T12:00:00;4.82;;;4.43;;
75689;SDS011;64303;53.118;9.044;2023-02-28T12:02:41;4.90;;;4.60;;
75689;SDS011;64303;53.118;9.044;2023-02-28T12:05:23;6.40;;;5.85;;
75689;SDS011;64303;53.118;9.044;2023-02-28T12:07:55;5.97;;;5.55;;
75689;SDS011;64303;53.118;9.044;2023-02-28T12:10:35;4.80;;;4.40;;
75689;SDS011;64303;53.118;9.044;2023-02-28T12:13:10;4.72;;;4.35;;
75689;SDS011;64303;53.118;9.044;2023-02-28T12:15:46;6.10;;;5.75;;
75689;SDS011;64303;53.118;9.044;2023-02-28T12:18:48;6.03;;;5.63;;
75689;SDS011;64303;53.118;9.044;2023-02-28T12:21:30;4.00;;;3.60;;
75689;SDS011;64303;53.118;9.044;2023-02-28T12:24:15;5.40;;;5.05;;
75689;SDS011;64303;53.118;9.044;2023-02-28T12:26:50;6.63;;;6.22;;
75689;SDS011;64303;53.118;9.044;2023-02-28T12:29:21;7.13;;;6.70;;
75689;SDS011;64303;53.118;9.044;2023-02-28T12:31:51;7.47;;;6.97;;
75689;SDS011;64303;53.118;9.044;2023-02-28T12:34:22;4.43;;;4.07;;
75689;SDS011;64303;53.118;9.044;2023-02-28T12:36:52;6.57;;;6.07;;
75689;SDS011;64303;53.118;9.044;2023-02-28T12:39:20;6.07;;;5.57;;
75689;SDS011;64303;53.118;9.044;2023-02-28T12:41:51;5.20;;;4.80;;
75689;SDS011;64303;53.118;9.044;2023-02-28T12:44:21;4.10;;;3.78;;
75689;SDS011;64303;53.118;9.044;2023-02-28T12:46:58;6.13;;;5.72;;
75689;SDS011;64303;53.118;9.044;2023-02-28T12:49:27;4.30;;;4.00;;
75689;SDS011;64303;53.118;9.044;2023-02-28T12:51:56;5.25;;;4.70;;
75689;SDS011;64303;53.118;9.044;2023-02-28T12:54:25;4.82;;;4.53;;
75689;SDS011;64303;53.118;9.044;2023-02-28T12:56:57;4.80;;;4.40;;
75689;SDS011;64303;53.118;9.044;2023-02-28T12:59:32;4.93;;;4.43;;
75689;SDS011;64303;53.118;9.044;2023-02-28T13:02:22;6.95;;;6.35;;
75689;SDS011;64303;53.118;9.044;2023-02-28T13:05:07;4.13;;;3.72;;
75689;SDS011;64303;53.118;9.044;2023-02-28T13:10:49;5.00;;;4.63;;
75689;SDS011;64303;53.118;9.044;2023-02-28T13:13:20;4.82;;;4.53;;
75689;SDS011;64303;53.118;9.044;2023-02-28T13:16:03;7.25;;;4.72;;
75689;SDS011;64303;53.118;9.044;2023-02-28T13:18:32;5.00;;;4.60;;
75689;SDS011;64303;53.118;9.044;2023-02-28T13:21:03;6.25;;;5.93;;
75689;SDS011;64303;53.118;9.044;2023-02-28T13:23:56;4.47;;;4.15;;
75689;SDS011;64303;53.118;9.044;2023-02-28T13:29:37;4.78;;;4.43;;
75689;SDS011;64303;53.118;9.044;2023-02-28T13:32:20;5.78;;;5.38;;
75689;SDS011;64303;53.118;9.044;2023-02-28T13:38:16;7.32;;;6.82;;
75689;SDS011;64303;53.118;9.044;2023-02-28T13:44:07;9.18;;;8.68;;
75689;SDS011;64303;53.118;9.044;2023-02-28T13:46:35;4.70;;;4.30;;
75689;SDS011;64303;53.118;9.044;2023-02-28T13:49:19;6.20;;;5.72;;
75689;SDS011;64303;53.118;9.044;2023-02-28T13:51:50;5.25;;;4.85;;
75689;SDS011;64303;53.118;9.044;2023-02-28T13:54:25;5.68;;;5.28;;
75689;SDS011;64303;53.118;9.044;2023-02-28T13:57:07;4.63;;;4.13;;
75689;SDS011;64303;53.118;9.044;2023-02-28T13:59:43;8.88;;;8.38;;
75689;SDS011;64303;53.118;9.044;2023-02-28T14:02:23;5.30;;;4.80;;
75689;SDS011;64303;53.118;9.044;2023-02-28T14:05:04;5.15;;;4.75;;
75689;SDS011;64303;53.118;9.044;2023-02-28T14:07:32;4.80;;;4.47;;
75689;SDS011;64303;53.118;9.044;2023-02-28T14:10:01;5.15;;;4.82;;
75689;SDS011;64303;53.118;9.044;2023-02-28T14:12:55;5.25;;;4.90;;
75689;SDS011;64303;53.118;9.044;2023-02-28T14:15:36;4.53;;;3.83;;
75689;SDS011;64303;53.118;9.044;2023-02-28T14:18:11;5.72;;;5.32;;
75689;SDS011;64303;53.118;9.044;2023-02-28T14:20:43;6.78;;;6.35;;
75689;SDS011;64303;53.118;9.044;2023-02-28T14:23:14;7.13;;;6.63;;
75689;SDS011;64303;53.118;9.044;2023-02-28T14:28:17;5.43;;;5.03;;
75689;SDS011;64303;53.118;9.044;2023-02-28T14:30:56;5.75;;;4.82;;
75689;SDS011;64303;53.118;9.044;2023-02-28T14:33:39;5.88;;;5.55;;
75689;SDS011;64303;53.118;9.044;2023-02-28T14:36:16;5.65;;;5.25;;
75689;SDS011;64303;53.118;9.044;2023-02-28T14:38:46;4.45;;;4.05;;
75689;SDS011;64303;53.118;9.044;2023-02-28T14:41:20;4.57;;;4.18;;
75689;SDS011;64303;53.118;9.044;2023-02-28T14:43:50;5.18;;;4.85;;
75689;SDS011;64303;53.118;9.044;2023-02-28T14:46:18;5.07;;;4.57;;
75689;SDS011;64303;53.118;9.044;2023-02-28T14:48:45;5.13;;;4.82;;
75689;SDS011;64303;53.118;9.044;2023-02-28T14:51:13;5.55;;;5.15;;
75689;SDS011;64303;53.118;9.044;2023-02-28T14:53:47;5.35;;;4.95;;
75689;SDS011;64303;53.118;9.044;2023-02-28T14:56:21;5.93;;;5.00;;
75689;SDS011;64303;53.118;9.044;2023-02-28T14:58:52;4.45;;;4.13;;
75689;SDS011;64303;53.118;9.044;2023-02-28T15:01:21;3.83;;;3.53;;
75689;SDS011;64303;53.118;9.044;2023-02-28T15:03:56;7.03;;;6.63;;
75689;SDS011;64303;53.118;9.044;2023-02-28T15:06:25;4.65;;;4.32;;
75689;SDS011;64303;53.118;9.044;2023-02-28T15:09:06;6.13;;;5.22;;
75689;SDS011;64303;53.118;9.044;2023-02-28T15:11:34;5.65;;;5.32;;
75689;SDS011;64303;53.118;9.044;2023-02-28T15:14:01;5.30;;;4.90;;
75689;SDS011;64303;53.118;9.044;2023-02-28T15:16:29;6.57;;;6.18;;
75689;SDS011;64303;53.118;9.044;2023-02-28T15:18:58;5.53;;;5.13;;
75689;SDS011;64303;53.118;9.044;2023-02-28T15:21:29;6.32;;;4.93;;
75689;SDS011;64303;53.118;9.044;2023-02-28T15:23:58;5.43;;;5.07;;
75689;SDS011;64303;53.118;9.044;2023-02-28T15:26:26;4.45;;;4.15;;
75689;SDS011;64303;53.118;9.044;2023-02-28T15:28:58;6.90;;;6.50;;
75689;SDS011;64303;53.118;9.044;2023-02-28T15:31:26;5.28;;;4.78;;
75689;SDS011;64303;53.118;9.044;2023-02-28T15:33:55;4.95;;;3.92;;
75689;SDS011;64303;53.118;9.044;2023-02-28T15:36:24;4.40;;;4.10;;
75689;SDS011;64303;53.118;9.044;2023-02-28T15:38:54;5.88;;;5.47;;
75689;SDS011;64303;53.118;9.044;2023-02-28T15:41:24;5.68;;;5.28;;
75689;SDS011;64303;53.118;9.044;2023-02-28T15:46:45;4.50;;;4.18;;
75689;SDS011;64303;53.118;9.044;2023-02-28T15:49:21;5.43;;;5.07;;